sensor_id;sensor_type;location;lat;lon;timestamp;pressure;altitude;pressure_sealevel;temperature;humidity
2549;BME280;1284;53.520;10.248;2022-10-30T00:02:24;101004.72;;;17.67;99.65
2549;BME280;1284;53.520;10.248;2022-10-30T00:04:49;100992.63;;;17.75;99.25
2549;BME280;1284;53.520;10.248;2022-10-30T00:07:15;100996.94;;;17.69;99.77
2549;BME280;1284;53.520;10.248;2022-10-30T00:09:40;101007.47;;;17.60;100.00
2549;BME280;1284;53.520;10.248;2022-10-30T00:12:05;101010.19;;;17.60;100.00
2549;BME280;1284;53.520;10.248;2022-10-30T00:14:31;101005.16;;;17.52;100.00
2549;BME280;1284;53.520;10.248;2022-10-30T00:16:56;101002.44;;;17.48;100.00
2549;BME280;1284;53.520;10.248;2022-10-30T00:19:22;100995.41;;;17.47;100.00
2549;BME280;1284;53.520;10.248;2022-10-30T00:21:47;100993.47;;;17.44;100.00
2549;BME280;1284;53.520;10.248;2022-10-30T00:24:12;100991.91;;;17.61;100.00
2549;BME280;1284;53.520;10.248;2022-10-30T00:26:38;100998.13;;;17.68;100.00
2549;BME280;1284;53.520;10.248;2022-10-30T00:29:03;100993.44;;;17.62;100.00
2549;BME280;1284;53.520;10.248;2022-10-30T00:31:29;100994.25;;;17.59;100.00
2549;BME280;1284;53.520;10.248;2022-10-30T00:33:54;101001.25;;;17.67;99.89
2549;BME280;1284;53.520;10.248;2022-10-30T00:36:20;100991.16;;;17.53;100.00
2549;BME280;1284;53.520;10.248;2022-10-30T00:38:46;100990.75;;;17.58;100.00
2549;BME280;1284;53.520;10.248;2022-10-30T00:41:21;100988.81;;;17.59;100.00
2549;BME280;1284;53.520;10.248;2022-10-30T00:43:47;100991.53;;;17.59;100.00
2549;BME280;1284;53.520;10.248;2022-10-30T00:46:35;100989.97;;;17.54;100.00
2549;BME280;1284;53.520;10.248;2022-10-30T00:49:09;100991.94;;;17.50;100.00
2549;BME280;1284;53.520;10.248;2022-10-30T00:51:38;100990.78;;;17.51;100.00
2549;BME280;1284;53.520;10.248;2022-10-30T00:54:06;100977.94;;;17.55;100.00
2549;BME280;1284;53.520;10.248;2022-10-30T00:56:32;100984.53;;;17.54;100.00
2549;BME280;1284;53.520;10.248;2022-10-30T00:59:02;100975.97;;;17.45;100.00
2549;BME280;1284;53.520;10.248;2022-10-30T01:01:32;100973.63;;;17.40;100.00
2549;BME280;1284;53.520;10.248;2022-10-30T01:04:01;100970.91;;;17.40;100.00
2549;BME280;1284;53.520;10.248;2022-10-30T01:06:29;100977.16;;;17.34;100.00
2549;BME280;1284;53.520;10.248;2022-10-30T01:08:56;100972.50;;;17.27;100.00
2549;BME280;1284;53.520;10.248;2022-10-30T01:11:22;100974.06;;;17.28;100.00
2549;BME280;1284;53.520;10.248;2022-10-30T01:13:49;100976.00;;;17.17;100.00
2549;BME280;1284;53.520;10.248;2022-10-30T01:27:38;100966.28;;;17.20;99.75
2549;BME280;1284;53.520;10.248;2022-10-30T01:35:58;100973.31;;;17.13;99.58
2549;BME280;1284;53.520;10.248;2022-10-30T01:38:43;100967.84;;;17.17;99.30
2549;BME280;1284;53.520;10.248;2022-10-30T01:41:12;100955.81;;;17.11;99.21
2549;BME280;1284;53.520;10.248;2022-10-30T01:43:42;100959.69;;;17.10;99.64
2549;BME280;1284;53.520;10.248;2022-10-30T01:52:23;100954.28;;;17.03;99.84
2549;BME280;1284;53.520;10.248;2022-10-30T01:55:03;100957.00;;;17.03;100.00
2549;BME280;1284;53.520;10.248;2022-10-30T02:00:15;100937.16;;;17.06;99.86
2549;BME280;1284;53.520;10.248;2022-10-30T02:02:47;100947.66;;;17.00;100.00
2549;BME280;1284;53.520;10.248;2022-10-30T02:05:24;100937.94;;;17.03;99.57
2549;BME280;1284;53.520;10.248;2022-10-30T02:07:52;100939.50;;;17.11;99.90
2549;BME280;1284;53.520;10.248;2022-10-30T02:10:18;100942.97;;;17.22;99.46
2549;BME280;1284;53.520;10.248;2022-10-30T02:12:44;100934.44;;;17.17;99.38
2549;BME280;1284;53.520;10.248;2022-10-30T02:15:11;100940.66;;;17.10;99.50
2549;BME280;1284;53.520;10.248;2022-10-30T02:17:37;100936.75;;;17.14;99.66
2549;BME280;1284;53.520;10.248;2022-10-30T02:20:05;100946.09;;;17.13;99.12
2549;BME280;1284;53.520;10.248;2022-10-30T02:22:31;100939.88;;;17.06;99.52
2549;BME280;1284;53.520;10.248;2022-10-30T02:24:56;100944.53;;;17.02;99.61
2549;BME280;1284;53.520;10.248;2022-10-30T02:27:23;100945.72;;;17.01;99.43
2549;BME280;1284;53.520;10.248;2022-10-30T02:29:49;100932.88;;;17.01;99.79
2549;BME280;1284;53.520;10.248;2022-10-30T02:32:14;100936.00;;;16.93;99.34
2549;BME280;1284;53.520;10.248;2022-10-30T02:34:40;100936.03;;;16.86;99.19
2549;BME280;1284;53.520;10.248;2022-10-30T02:37:07;100941.84;;;16.81;99.41
2549;BME280;1284;53.520;10.248;2022-10-30T02:39:33;100945.34;;;16.78;99.55
2549;BME280;1284;53.520;10.248;2022-10-30T02:41:58;100936.03;;;16.72;99.20
2549;BME280;1284;53.520;10.248;2022-10-30T02:44:26;100948.44;;;16.69;99.34
2549;BME280;1284;53.520;10.248;2022-10-30T02:46:52;100943.41;;;16.68;99.32
2549;BME280;1284;53.520;10.248;2022-10-30T02:49:17;100937.56;;;16.73;98.79
2549;BME280;1284;53.520;10.248;2022-10-30T02:51:43;100943.78;;;16.73;98.88
2549;BME280;1284;53.520;10.248;2022-10-30T02:54:10;100941.06;;;16.77;98.21
2549;BME280;1284;53.520;10.248;2022-10-30T02:56:39;100940.69;;;16.75;98.56
2549;BME280;1284;53.520;10.248;2022-10-30T02:59:04;100949.25;;;16.70;98.13
2549;BME280;1284;53.520;10.248;2022-10-30T03:01:30;100944.94;;;16.65;98.35
2549;BME280;1284;53.520;10.248;2022-10-30T03:03:58;100939.88;;;16.53;98.36
2549;BME280;1284;53.520;10.248;2022-10-30T03:06:23;100948.44;;;16.52;98.10
2549;BME280;1284;53.520;10.248;2022-10-30T03:08:49;100953.50;;;16.50;98.15
2549;BME280;1284;53.520;10.248;2022-10-30T03:11:17;100956.59;;;16.52;97.86
2549;BME280;1284;53.520;10.248;2022-10-30T03:13:45;100950.75;;;16.43;97.77
2549;BME280;1284;53.520;10.248;2022-10-30T03:16:14;100960.81;;;16.39;97.57
2549;BME280;1284;53.520;10.248;2022-10-30T03:18:40;100964.69;;;16.31;98.36
2549;BME280;1284;53.520;10.248;2022-10-30T03:21:11;100972.84;;;16.31;98.07
2549;BME280;1284;53.520;10.248;2022-10-30T03:23:36;100973.63;;;16.31;97.89
2549;BME280;1284;53.520;10.248;2022-10-30T03:26:03;100963.13;;;16.22;97.90
2549;BME280;1284;53.520;10.248;2022-10-30T03:28:31;100961.56;;;16.21;97.61
2549;BME280;1284;53.520;10.248;2022-10-30T03:30:58;100961.97;;;16.20;97.70
2549;BME280;1284;53.520;10.248;2022-10-30T03:33:24;100960.03;;;16.31;97.61
2549;BME280;1284;53.520;10.248;2022-10-30T03:35:50;100960.81;;;16.32;97.68
2549;BME280;1284;53.520;10.248;2022-10-30T03:38:16;100970.91;;;16.27;97.91
2549;BME280;1284;53.520;10.248;2022-10-30T03:40:41;100966.22;;;16.28;97.90
2549;BME280;1284;53.520;10.248;2022-10-30T03:43:07;100954.22;;;16.29;97.42
2549;BME280;1284;53.520;10.248;2022-10-30T03:45:33;100959.66;;;16.25;97.63
2549;BME280;1284;53.520;10.248;2022-10-30T03:48:02;100956.16;;;16.25;97.52
2549;BME280;1284;53.520;10.248;2022-10-30T03:50:28;100961.53;;;16.11;97.23
2549;BME280;1284;53.520;10.248;2022-10-30T03:52:55;100965.44;;;16.17;97.62
2549;BME280;1284;53.520;10.248;2022-10-30T03:55:20;100964.69;;;16.20;97.92
2549;BME280;1284;53.520;10.248;2022-10-30T03:57:46;100965.03;;;16.11;97.40
2549;BME280;1284;53.520;10.248;2022-10-30T04:00:18;100966.19;;;16.10;97.19
2549;BME280;1284;53.520;10.248;2022-10-30T04:02:57;100975.53;;;16.13;97.87
2549;BME280;1284;53.520;10.248;2022-10-30T04:05:25;100978.22;;;16.09;97.63
2549;BME280;1284;53.520;10.248;2022-10-30T04:07:58;100965.78;;;16.01;97.79
2549;BME280;1284;53.520;10.248;2022-10-30T04:10:24;100968.50;;;15.98;97.76
2549;BME280;1284;53.520;10.248;2022-10-30T04:12:51;100975.50;;;16.02;98.03
2549;BME280;1284;53.520;10.248;2022-10-30T04:15:18;100980.50;;;15.97;97.72
2549;BME280;1284;53.520;10.248;2022-10-30T04:17:50;100973.53;;;15.92;97.64
2549;BME280;1284;53.520;10.248;2022-10-30T04:20:18;100967.69;;;15.90;97.81
2549;BME280;1284;53.520;10.248;2022-10-30T04:22:44;100974.28;;;15.89;97.75
2549;BME280;1284;53.520;10.248;2022-10-30T04:25:13;100976.19;;;15.85;97.33
2549;BME280;1284;53.520;10.248;2022-10-30T04:27:41;100971.91;;;15.77;97.80
2549;BME280;1284;53.520;10.248;2022-10-30T04:30:08;100971.13;;;15.73;98.10
2549;BME280;1284;53.520;10.248;2022-10-30T04:32:33;100968.00;;;15.75;97.60
2549;BME280;1284;53.520;10.248;2022-10-30T04:34:59;100962.19;;;15.69;97.62
2549;BME280;1284;53.520;10.248;2022-10-30T04:37:24;100965.69;;;15.77;97.79
2549;BME280;1284;53.520;10.248;2022-10-30T04:39:50;100973.03;;;15.73;97.86
2549;BME280;1284;53.520;10.248;2022-10-30T04:42:20;100973.03;;;15.73;97.44
2549;BME280;1284;53.520;10.248;2022-10-30T04:44:45;100964.09;;;15.65;97.26
2549;BME280;1284;53.520;10.248;2022-10-30T04:47:11;100957.47;;;15.59;97.48
2549;BME280;1284;53.520;10.248;2022-10-30T04:49:36;100954.38;;;15.61;97.78
2549;BME280;1284;53.520;10.248;2022-10-30T04:52:02;100940.81;;;15.64;98.06
2549;BME280;1284;53.520;10.248;2022-10-30T04:54:27;100947.75;;;15.58;98.30
2549;BME280;1284;53.520;10.248;2022-10-30T04:56:53;100948.16;;;15.60;97.89
2549;BME280;1284;53.520;10.248;2022-10-30T04:59:21;100954.38;;;15.61;97.91
2549;BME280;1284;53.520;10.248;2022-10-30T05:01:50;100947.72;;;15.51;97.85
2549;BME280;1284;53.520;10.248;2022-10-30T05:04:15;100957.78;;;15.47;97.68
2549;BME280;1284;53.520;10.248;2022-10-30T05:06:41;100952.75;;;15.46;97.86
2549;BME280;1284;53.520;10.248;2022-10-30T05:09:06;100948.91;;;15.50;98.17
2549;BME280;1284;53.520;10.248;2022-10-30T05:11:38;100942.34;;;15.62;97.41
2549;BME280;1284;53.520;10.248;2022-10-30T05:14:05;100936.56;;;15.67;96.80
2549;BME280;1284;53.520;10.248;2022-10-30T05:16:30;100939.66;;;15.65;97.24
2549;BME280;1284;53.520;10.248;2022-10-30T05:18:58;100943.50;;;15.64;96.91
2549;BME280;1284;53.520;10.248;2022-10-30T05:21:23;100948.94;;;15.61;97.39
2549;BME280;1284;53.520;10.248;2022-10-30T05:23:49;100944.69;;;15.63;97.13
2549;BME280;1284;53.520;10.248;2022-10-30T05:26:14;100945.06;;;15.62;97.30
2549;BME280;1284;53.520;10.248;2022-10-30T05:28:40;100936.88;;;15.55;97.16
2549;BME280;1284;53.520;10.248;2022-10-30T05:31:07;100955.47;;;15.49;97.17
2549;BME280;1284;53.520;10.248;2022-10-30T05:33:51;100957.38;;;15.42;97.67
2549;BME280;1284;53.520;10.248;2022-10-30T05:36:16;100959.69;;;15.43;97.73
2549;BME280;1284;53.520;10.248;2022-10-30T05:38:42;100956.16;;;15.39;97.42
2549;BME280;1284;53.520;10.248;2022-10-30T05:41:13;100958.19;;;15.49;97.73
2549;BME280;1284;53.520;10.248;2022-10-30T05:43:39;100955.06;;;15.44;97.17
2549;BME280;1284;53.520;10.248;2022-10-30T05:46:04;100956.25;;;15.46;97.41
2549;BME280;1284;53.520;10.248;2022-10-30T05:48:31;100961.28;;;15.44;97.14
2549;BME280;1284;53.520;10.248;2022-10-30T05:50:56;100968.22;;;15.42;97.23
2549;BME280;1284;53.520;10.248;2022-10-30T05:53:25;100969.31;;;15.33;97.73
2549;BME280;1284;53.520;10.248;2022-10-30T05:55:56;100963.47;;;15.28;97.41
2549;BME280;1284;53.520;10.248;2022-10-30T05:58:23;100966.59;;;15.30;97.39
2549;BME280;1284;53.520;10.248;2022-10-30T06:00:49;100951.88;;;15.31;97.05
2549;BME280;1284;53.520;10.248;2022-10-30T06:03:24;100956.50;;;15.27;97.16
2549;BME280;1284;53.520;10.248;2022-10-30T06:05:51;100971.19;;;15.22;97.20
2549;BME280;1284;53.520;10.248;2022-10-30T06:08:17;100973.50;;;15.20;97.35
2549;BME280;1284;53.520;10.248;2022-10-30T06:10:45;100973.53;;;15.24;97.52
2549;BME280;1284;53.520;10.248;2022-10-30T06:13:21;100983.22;;;15.25;97.10
2549;BME280;1284;53.520;10.248;2022-10-30T06:16:07;100977.41;;;15.23;97.19
2549;BME280;1284;53.520;10.248;2022-10-30T06:19:08;100986.69;;;15.22;97.14
2549;BME280;1284;53.520;10.248;2022-10-30T06:21:33;100991.31;;;15.18;97.28
2549;BME280;1284;53.520;10.248;2022-10-30T06:24:13;100999.75;;;15.06;97.68
2549;BME280;1284;53.520;10.248;2022-10-30T06:26:43;100991.97;;;15.01;97.50
2549;BME280;1284;53.520;10.248;2022-10-30T06:29:12;100997.06;;;15.09;97.59
2549;BME280;1284;53.520;10.248;2022-10-30T06:31:38;100992.00;;;15.08;97.56
2549;BME280;1284;53.520;10.248;2022-10-30T06:34:03;100992.00;;;15.08;97.66
2549;BME280;1284;53.520;10.248;2022-10-30T06:36:31;100986.22;;;15.09;97.84
2549;BME280;1284;53.520;10.248;2022-10-30T06:38:57;100993.56;;;15.09;98.01
2549;BME280;1284;53.520;10.248;2022-10-30T06:41:25;101004.06;;;15.14;97.90
2549;BME280;1284;53.520;10.248;2022-10-30T06:44:08;101001.03;;;15.22;97.82
2549;BME280;1284;53.520;10.248;2022-10-30T06:46:35;100999.50;;;15.25;97.51
2549;BME280;1284;53.520;10.248;2022-10-30T06:49:01;100992.09;;;15.22;97.64
2549;BME280;1284;53.520;10.248;2022-10-30T06:51:27;100997.91;;;15.20;97.76
2549;BME280;1284;53.520;10.248;2022-10-30T06:53:53;101007.28;;;15.26;97.39
2549;BME280;1284;53.520;10.248;2022-10-30T06:56:53;101003.03;;;15.29;97.86
2549;BME280;1284;53.520;10.248;2022-10-30T06:59:43;101004.97;;;15.28;98.64
2549;BME280;1284;53.520;10.248;2022-10-30T07:02:53;101012.41;;;15.38;99.34
2549;BME280;1284;53.520;10.248;2022-10-30T07:05:19;101014.44;;;15.52;98.83
2549;BME280;1284;53.520;10.248;2022-10-30T07:07:44;101014.06;;;15.50;98.92
2549;BME280;1284;53.520;10.248;2022-10-30T07:10:10;101014.06;;;15.50;98.95
2549;BME280;1284;53.520;10.248;2022-10-30T07:12:56;101014.09;;;15.61;99.05
2549;BME280;1284;53.520;10.248;2022-10-30T07:15:41;101014.56;;;15.73;99.03
2549;BME280;1284;53.520;10.248;2022-10-30T07:18:29;101016.91;;;15.82;98.88
2549;BME280;1284;53.520;10.248;2022-10-30T07:20:57;101019.31;;;15.94;98.70
2549;BME280;1284;53.520;10.248;2022-10-30T07:23:23;101020.53;;;16.03;98.27
2549;BME280;1284;53.520;10.248;2022-10-30T07:25:51;101021.31;;;16.14;98.40
2549;BME280;1284;53.520;10.248;2022-10-30T07:28:21;101016.28;;;16.09;99.32
2549;BME280;1284;53.520;10.248;2022-10-30T07:31:16;101021.38;;;16.18;99.57
2549;BME280;1284;53.520;10.248;2022-10-30T07:34:01;101024.50;;;16.27;99.41
2549;BME280;1284;53.520;10.248;2022-10-30T07:36:40;101015.94;;;16.32;98.96
2549;BME280;1284;53.520;10.248;2022-10-30T07:39:28;101028.00;;;16.38;98.41
2549;BME280;1284;53.520;10.248;2022-10-30T07:42:08;101029.19;;;16.41;98.06
2549;BME280;1284;53.520;10.248;2022-10-30T07:45:09;101021.81;;;16.41;98.48
2549;BME280;1284;53.520;10.248;2022-10-30T07:47:53;101027.66;;;16.47;98.60
2549;BME280;1284;53.520;10.248;2022-10-30T07:50:35;101029.63;;;16.50;98.46
2549;BME280;1284;53.520;10.248;2022-10-30T07:53:00;101035.84;;;16.50;98.16
2549;BME280;1284;53.520;10.248;2022-10-30T07:55:29;101037.78;;;16.53;97.99
2549;BME280;1284;53.520;10.248;2022-10-30T07:58:09;101037.78;;;16.53;98.62
2549;BME280;1284;53.520;10.248;2022-10-30T08:00:53;101049.09;;;16.62;98.42
2549;BME280;1284;53.520;10.248;2022-10-30T08:03:26;101054.91;;;16.75;98.88
2549;BME280;1284;53.520;10.248;2022-10-30T08:05:55;101051.84;;;16.87;99.02
2549;BME280;1284;53.520;10.248;2022-10-30T08:08:26;101057.66;;;16.92;99.55
2549;BME280;1284;53.520;10.248;2022-10-30T08:11:04;101050.31;;;17.14;98.95
2549;BME280;1284;53.520;10.248;2022-10-30T08:13:29;101058.09;;;17.26;98.87
2549;BME280;1284;53.520;10.248;2022-10-30T08:15:55;101058.47;;;17.35;98.58
2549;BME280;1284;53.520;10.248;2022-10-30T08:18:20;101062.00;;;17.50;98.25
2549;BME280;1284;53.520;10.248;2022-10-30T08:20:49;101061.94;;;17.67;98.00
2549;BME280;1284;53.520;10.248;2022-10-30T08:23:14;101058.78;;;17.86;97.29
2549;BME280;1284;53.520;10.248;2022-10-30T08:25:42;101061.84;;;18.02;97.09
2549;BME280;1284;53.520;10.248;2022-10-30T08:28:07;101059.88;;;18.14;95.62
2549;BME280;1284;53.520;10.248;2022-10-30T08:30:36;101058.69;;;18.15;93.74
2549;BME280;1284;53.520;10.248;2022-10-30T08:33:09;101050.06;;;18.27;94.08
2549;BME280;1284;53.520;10.248;2022-10-30T08:35:58;101057.81;;;18.42;93.47
2549;BME280;1284;53.520;10.248;2022-10-30T08:38:25;101055.41;;;18.51;92.48
2549;BME280;1284;53.520;10.248;2022-10-30T08:41:04;101053.75;;;18.68;92.05
2549;BME280;1284;53.520;10.248;2022-10-30T08:43:32;101053.34;;;18.73;91.16
2549;BME280;1284;53.520;10.248;2022-10-30T08:45:59;101050.53;;;18.87;90.32
2549;BME280;1284;53.520;10.248;2022-10-30T08:48:25;101056.34;;;18.92;89.80
2549;BME280;1284;53.520;10.248;2022-10-30T08:50:50;101058.22;;;18.99;89.65
2549;BME280;1284;53.520;10.248;2022-10-30T08:53:24;101067.50;;;19.09;88.65
2549;BME280;1284;53.520;10.248;2022-10-30T08:55:52;101069.84;;;19.10;88.38
2549;BME280;1284;53.520;10.248;2022-10-30T08:58:24;101063.66;;;19.03;87.94
2549;BME280;1284;53.520;10.248;2022-10-30T09:00:50;101063.63;;;19.06;87.88
2549;BME280;1284;53.520;10.248;2022-10-30T09:03:15;101060.56;;;18.97;88.27
2549;BME280;1284;53.520;10.248;2022-10-30T09:05:59;101062.06;;;19.05;88.79
2549;BME280;1284;53.520;10.248;2022-10-30T09:08:45;101051.03;;;19.19;88.33
2549;BME280;1284;53.520;10.248;2022-10-30T09:11:29;101069.69;;;19.31;87.78
2549;BME280;1284;53.520;10.248;2022-10-30T09:13:55;101064.13;;;19.42;87.62
2549;BME280;1284;53.520;10.248;2022-10-30T09:16:21;101057.34;;;19.57;87.48
2549;BME280;1284;53.520;10.248;2022-10-30T09:18:47;101070.16;;;19.63;87.18
2549;BME280;1284;53.520;10.248;2022-10-30T09:21:13;101065.34;;;19.78;86.45
2549;BME280;1284;53.520;10.248;2022-10-30T09:23:43;101071.47;;;19.89;86.35
2549;BME280;1284;53.520;10.248;2022-10-30T09:26:28;101064.38;;;19.95;85.48
2549;BME280;1284;53.520;10.248;2022-10-30T09:29:03;101073.69;;;19.98;84.95
2549;BME280;1284;53.520;10.248;2022-10-30T09:31:55;101073.53;;;20.12;84.77
2549;BME280;1284;53.520;10.248;2022-10-30T09:34:23;101072.31;;;20.20;84.74
2549;BME280;1284;53.520;10.248;2022-10-30T09:37:11;101071.81;;;20.28;84.60
2549;BME280;1284;53.520;10.248;2022-10-30T09:39:37;101071.81;;;20.28;84.63
2549;BME280;1284;53.520;10.248;2022-10-30T09:42:15;101068.88;;;20.42;84.25
2549;BME280;1284;53.520;10.248;2022-10-30T09:57:00;101073.72;;;20.88;82.97
2549;BME280;1284;53.520;10.248;2022-10-30T10:00:01;101086.44;;;20.98;83.10
2549;BME280;1284;53.520;10.248;2022-10-30T10:02:37;101083.91;;;21.14;82.54
2549;BME280;1284;53.520;10.248;2022-10-30T10:05:13;101074.88;;;21.14;83.12
2549;BME280;1284;53.520;10.248;2022-10-30T10:08:03;101078.19;;;21.28;82.79
2549;BME280;1284;53.520;10.248;2022-10-30T10:11:04;101077.25;;;21.38;82.05
2549;BME280;1284;53.520;10.248;2022-10-30T10:13:44;101079.63;;;21.36;81.52
2549;BME280;1284;53.520;10.248;2022-10-30T10:16:18;101080.44;;;21.33;81.45
2549;BME280;1284;53.520;10.248;2022-10-30T10:18:47;101078.00;;;21.39;81.50
2549;BME280;1284;53.520;10.248;2022-10-30T10:21:32;101068.09;;;21.45;81.18
2549;BME280;1284;53.520;10.248;2022-10-30T10:24:02;101060.53;;;21.52;81.51
2549;BME280;1284;53.520;10.248;2022-10-30T10:34:45;101054.66;;;21.74;81.12
2549;BME280;1284;53.520;10.248;2022-10-30T10:45:14;101053.69;;;21.84;80.96
2549;BME280;1284;53.520;10.248;2022-10-30T10:48:04;101047.75;;;21.89;81.11
2549;BME280;1284;53.520;10.248;2022-10-30T10:50:42;101045.72;;;21.93;80.42
2549;BME280;1284;53.520;10.248;2022-10-30T10:53:19;101053.44;;;21.98;80.28
2549;BME280;1284;53.520;10.248;2022-10-30T10:55:48;101046.97;;;22.08;80.11
2549;BME280;1284;53.520;10.248;2022-10-30T10:58:35;101041.19;;;22.02;80.06
2549;BME280;1284;53.520;10.248;2022-10-30T11:01:04;101048.94;;;22.07;79.78
2549;BME280;1284;53.520;10.248;2022-10-30T11:03:44;101038.28;;;22.09;80.00
2549;BME280;1284;53.520;10.248;2022-10-30T11:06:20;101049.28;;;22.09;79.80
2549;BME280;1284;53.520;10.248;2022-10-30T11:08:47;101053.22;;;22.08;79.52
2549;BME280;1284;53.520;10.248;2022-10-30T11:11:13;101047.44;;;22.03;79.41
2549;BME280;1284;53.520;10.248;2022-10-30T11:13:41;101037.94;;;22.07;78.51
2549;BME280;1284;53.520;10.248;2022-10-30T11:18:59;101045.28;;;21.94;78.81
2549;BME280;1284;53.520;10.248;2022-10-30T11:21:26;101035.00;;;21.98;79.54
2549;BME280;1284;53.520;10.248;2022-10-30T11:23:53;101022.53;;;22.13;79.12
2549;BME280;1284;53.520;10.248;2022-10-30T11:28:49;101035.75;;;22.18;78.95
2549;BME280;1284;53.520;10.248;2022-10-30T11:31:30;101037.22;;;22.23;78.74
2549;BME280;1284;53.520;10.248;2022-10-30T11:34:28;101031.31;;;22.24;78.84
2549;BME280;1284;53.520;10.248;2022-10-30T11:39:41;101042.88;;;22.16;79.02
2549;BME280;1284;53.520;10.248;2022-10-30T11:44:37;101037.16;;;22.26;78.70
2549;BME280;1284;53.520;10.248;2022-10-30T11:47:04;101040.41;;;22.21;78.88
2549;BME280;1284;53.520;10.248;2022-10-30T11:49:42;101033.66;;;22.26;78.13
2549;BME280;1284;53.520;10.248;2022-10-30T11:52:10;101044.19;;;22.27;77.47
2549;BME280;1284;53.520;10.248;2022-10-30T11:54:47;101037.75;;;22.34;78.09
2549;BME280;1284;53.520;10.248;2022-10-30T11:57:35;101039.31;;;22.35;77.43
2549;BME280;1284;53.520;10.248;2022-10-30T12:00:05;101033.84;;;22.35;77.68
2549;BME280;1284;53.520;10.248;2022-10-30T12:02:44;101040.16;;;22.32;78.26
2549;BME280;1284;53.520;10.248;2022-10-30T12:13:18;101020.63;;;22.46;78.06
2549;BME280;1284;53.520;10.248;2022-10-30T12:15:47;101034.88;;;22.41;77.13
2549;BME280;1284;53.520;10.248;2022-10-30T12:18:24;101035.16;;;22.47;76.45
2549;BME280;1284;53.520;10.248;2022-10-30T12:20:55;101035.31;;;22.39;76.59
2549;BME280;1284;53.520;10.248;2022-10-30T12:23:23;101038.31;;;22.45;76.76
2549;BME280;1284;53.520;10.248;2022-10-30T12:26:10;101034.16;;;22.57;77.05
2549;BME280;1284;53.520;10.248;2022-10-30T12:28:37;101025.56;;;22.55;76.74
2549;BME280;1284;53.520;10.248;2022-10-30T12:33:38;101029.72;;;22.63;76.81
2549;BME280;1284;53.520;10.248;2022-10-30T12:36:05;101023.88;;;22.61;76.85
2549;BME280;1284;53.520;10.248;2022-10-30T12:38:36;101028.69;;;22.57;76.88
2549;BME280;1284;53.520;10.248;2022-10-30T12:47:04;101026.31;;;22.55;77.73
2549;BME280;1284;53.520;10.248;2022-10-30T12:49:46;101026.38;;;22.52;77.91
2549;BME280;1284;53.520;10.248;2022-10-30T12:52:19;101022.38;;;22.56;77.67
2549;BME280;1284;53.520;10.248;2022-10-30T12:54:55;101021.34;;;22.50;77.65
2549;BME280;1284;53.520;10.248;2022-10-30T12:57:30;101017.19;;;22.42;78.66
2549;BME280;1284;53.520;10.248;2022-10-30T13:02:38;101025.09;;;22.40;79.06
2549;BME280;1284;53.520;10.248;2022-10-30T13:05:15;101023.13;;;22.40;78.88
2549;BME280;1284;53.520;10.248;2022-10-30T13:07:46;101015.94;;;22.47;79.17
2549;BME280;1284;53.520;10.248;2022-10-30T13:10:31;101024.50;;;22.49;78.90
2549;BME280;1284;53.520;10.248;2022-10-30T13:13:04;101013.88;;;22.51;78.99
2549;BME280;1284;53.520;10.248;2022-10-30T13:15:39;101016.97;;;22.53;78.79
2549;BME280;1284;53.520;10.248;2022-10-30T13:18:17;101014.72;;;22.48;78.75
2549;BME280;1284;53.520;10.248;2022-10-30T13:21:00;101017.13;;;22.45;79.17
2549;BME280;1284;53.520;10.248;2022-10-30T13:23:51;101015.50;;;22.48;79.36
2549;BME280;1284;53.520;10.248;2022-10-30T13:31:24;101005.38;;;22.45;79.45
2549;BME280;1284;53.520;10.248;2022-10-30T13:34:42;101017.91;;;22.46;78.75
2549;BME280;1284;53.520;10.248;2022-10-30T13:45:25;101022.78;;;22.38;79.18
2549;BME280;1284;53.520;10.248;2022-10-30T13:50:58;101020.16;;;22.51;78.57
2549;BME280;1284;53.520;10.248;2022-10-30T13:53:28;101022.47;;;22.53;79.50
2549;BME280;1284;53.520;10.248;2022-10-30T13:55:56;101023.22;;;22.53;79.29
2549;BME280;1284;53.520;10.248;2022-10-30T13:58:42;101030.69;;;22.53;79.70
2549;BME280;1284;53.520;10.248;2022-10-30T14:01:20;101019.81;;;22.49;80.00
2549;BME280;1284;53.520;10.248;2022-10-30T14:03:56;101016.72;;;22.47;79.55
2549;BME280;1284;53.520;10.248;2022-10-30T14:11:54;101015.75;;;22.37;80.58
2549;BME280;1284;53.520;10.248;2022-10-30T14:14:27;101021.28;;;22.34;80.86
2549;BME280;1284;53.520;10.248;2022-10-30T14:17:13;101025.72;;;22.28;80.93
2549;BME280;1284;53.520;10.248;2022-10-30T14:22:30;101014.56;;;22.19;82.31
2549;BME280;1284;53.520;10.248;2022-10-30T14:24:57;101016.63;;;22.15;82.70
2549;BME280;1284;53.520;10.248;2022-10-30T14:29:53;101010.44;;;22.11;82.55
2549;BME280;1284;53.520;10.248;2022-10-30T14:40:32;101024.50;;;21.93;83.49
2549;BME280;1284;53.520;10.248;2022-10-30T14:43:07;101021.50;;;21.88;83.74
2549;BME280;1284;53.520;10.248;2022-10-30T14:45:37;101020.78;;;21.84;84.26
2549;BME280;1284;53.520;10.248;2022-10-30T14:48:21;101019.31;;;21.79;84.13
2549;BME280;1284;53.520;10.248;2022-10-30T14:51:00;101021.69;;;21.77;84.45
2549;BME280;1284;53.520;10.248;2022-10-30T14:53:51;101020.97;;;21.73;84.87
2549;BME280;1284;53.520;10.248;2022-10-30T14:56:40;101019.50;;;21.69;84.76
2549;BME280;1284;53.520;10.248;2022-10-30T14:59:20;101015.69;;;21.63;85.17
2549;BME280;1284;53.520;10.248;2022-10-30T15:05:08;101018.00;;;21.44;86.13
2549;BME280;1284;53.520;10.248;2022-10-30T15:07:52;101013.72;;;21.43;86.47
2549;BME280;1284;53.520;10.248;2022-10-30T15:10:34;101013.00;;;21.39;86.42
2549;BME280;1284;53.520;10.248;2022-10-30T15:13:21;101011.84;;;21.37;86.37
2549;BME280;1284;53.520;10.248;2022-10-30T15:16:05;101005.72;;;21.29;86.22
2549;BME280;1284;53.520;10.248;2022-10-30T15:18:32;100996.03;;;21.25;86.63
2549;BME280;1284;53.520;10.248;2022-10-30T15:21:05;101002.78;;;21.20;86.40
2549;BME280;1284;53.520;10.248;2022-10-30T15:23:40;100999.81;;;21.11;86.49
2549;BME280;1284;53.520;10.248;2022-10-30T15:26:07;101005.00;;;21.06;86.93
2549;BME280;1284;53.520;10.248;2022-10-30T15:28:48;101002.31;;;20.99;86.68